sensor_id;sensor_type;location;lat;lon;timestamp;temperature;humidity
75819;DHT22;64453;51.944;9.796;2023-07-31T00:00:28;21.50;62.10
75819;DHT22;64453;51.944;9.796;2023-07-31T00:02:55;21.60;62.30
75819;DHT22;64453;51.944;9.796;2023-07-31T00:05:24;21.60;61.30
75819;DHT22;64453;51.944;9.796;2023-07-31T00:07:51;21.30;62.40
75819;DHT22;64453;51.944;9.796;2023-07-31T00:10:19;21.50;61.80
75819;DHT22;64453;51.944;9.796;2023-07-31T00:12:46;21.60;61.30
75819;DHT22;64453;51.944;9.796;2023-07-31T00:15:14;21.50;62.10
75819;DHT22;64453;51.944;9.796;2023-07-31T00:17:42;21.40;62.10
75819;DHT22;64453;51.944;9.796;2023-07-31T00:20:10;21.50;62.00
75819;DHT22;64453;51.944;9.796;2023-07-31T00:22:39;21.50;61.90
75819;DHT22;64453;51.944;9.796;2023-07-31T00:25:07;21.60;62.20
75819;DHT22;64453;51.944;9.796;2023-07-31T00:27:34;21.40;62.90
75819;DHT22;64453;51.944;9.796;2023-07-31T00:30:01;21.40;63.20
75819;DHT22;64453;51.944;9.796;2023-07-31T00:32:28;21.60;63.80
75819;DHT22;64453;51.944;9.796;2023-07-31T00:34:55;21.50;63.40
75819;DHT22;64453;51.944;9.796;2023-07-31T00:37:23;21.70;63.90
75819;DHT22;64453;51.944;9.796;2023-07-31T00:39:51;21.50;63.60
75819;DHT22;64453;51.944;9.796;2023-07-31T00:42:19;21.50;64.00
75819;DHT22;64453;51.944;9.796;2023-07-31T00:44:46;21.30;63.40
75819;DHT22;64453;51.944;9.796;2023-07-31T00:47:13;21.50;64.50
75819;DHT22;64453;51.944;9.796;2023-07-31T00:49:41;21.60;64.10
75819;DHT22;64453;51.944;9.796;2023-07-31T00:52:09;21.70;64.00
75819;DHT22;64453;51.944;9.796;2023-07-31T00:54:36;21.60;64.40
75819;DHT22;64453;51.944;9.796;2023-07-31T00:57:05;21.40;64.40
75819;DHT22;64453;51.944;9.796;2023-07-31T00:59:33;21.50;64.10
75819;DHT22;64453;51.944;9.796;2023-07-31T01:02:01;21.60;64.10
75819;DHT22;64453;51.944;9.796;2023-07-31T01:04:29;21.50;63.70
75819;DHT22;64453;51.944;9.796;2023-07-31T01:07:01;21.60;65.10
75819;DHT22;64453;51.944;9.796;2023-07-31T01:09:38;21.70;65.20
75819;DHT22;64453;51.944;9.796;2023-07-31T01:12:16;21.60;64.50
75819;DHT22;64453;51.944;9.796;2023-07-31T01:14:51;21.50;64.10
75819;DHT22;64453;51.944;9.796;2023-07-31T01:17:19;21.60;64.00
75819;DHT22;64453;51.944;9.796;2023-07-31T01:19:46;21.70;64.70
75819;DHT22;64453;51.944;9.796;2023-07-31T01:22:30;21.60;64.90
75819;DHT22;64453;51.944;9.796;2023-07-31T01:25:12;21.70;64.20
75819;DHT22;64453;51.944;9.796;2023-07-31T01:27:51;21.60;64.80
75819;DHT22;64453;51.944;9.796;2023-07-31T01:30:33;21.50;66.00
75819;DHT22;64453;51.944;9.796;2023-07-31T01:33:06;21.30;65.10
75819;DHT22;64453;51.944;9.796;2023-07-31T01:35:34;21.30;65.30
75819;DHT22;64453;51.944;9.796;2023-07-31T01:38:01;21.50;64.70
75819;DHT22;64453;51.944;9.796;2023-07-31T01:40:28;21.60;65.50
75819;DHT22;64453;51.944;9.796;2023-07-31T01:42:56;21.20;64.70
75819;DHT22;64453;51.944;9.796;2023-07-31T01:45:23;21.50;65.50
75819;DHT22;64453;51.944;9.796;2023-07-31T01:47:50;21.60;65.20
75819;DHT22;64453;51.944;9.796;2023-07-31T01:50:18;21.60;65.40
75819;DHT22;64453;51.944;9.796;2023-07-31T01:52:46;21.60;65.80
75819;DHT22;64453;51.944;9.796;2023-07-31T01:55:13;21.60;65.70
75819;DHT22;64453;51.944;9.796;2023-07-31T01:57:40;21.60;66.50
75819;DHT22;64453;51.944;9.796;2023-07-31T02:00:09;21.60;65.40
75819;DHT22;64453;51.944;9.796;2023-07-31T02:02:36;21.60;66.30
75819;DHT22;64453;51.944;9.796;2023-07-31T02:05:04;21.50;66.80
75819;DHT22;64453;51.944;9.796;2023-07-31T02:07:31;21.50;66.40
75819;DHT22;64453;51.944;9.796;2023-07-31T02:09:58;21.60;66.80
75819;DHT22;64453;51.944;9.796;2023-07-31T02:12:25;21.60;66.90
75819;DHT22;64453;51.944;9.796;2023-07-31T02:14:55;21.60;66.70
75819;DHT22;64453;51.944;9.796;2023-07-31T02:17:24;21.60;66.80
75819;DHT22;64453;51.944;9.796;2023-07-31T02:19:55;21.50;67.30
75819;DHT22;64453;51.944;9.796;2023-07-31T02:22:22;21.50;67.20
75819;DHT22;64453;51.944;9.796;2023-07-31T02:24:49;21.50;67.70
75819;DHT22;64453;51.944;9.796;2023-07-31T02:27:16;21.40;66.00
75819;DHT22;64453;51.944;9.796;2023-07-31T02:29:43;21.50;67.00
75819;DHT22;64453;51.944;9.796;2023-07-31T02:32:10;21.30;66.00
75819;DHT22;64453;51.944;9.796;2023-07-31T02:34:38;21.40;66.30
75819;DHT22;64453;51.944;9.796;2023-07-31T02:37:05;21.30;67.00
75819;DHT22;64453;51.944;9.796;2023-07-31T02:39:32;21.00;67.10
75819;DHT22;64453;51.944;9.796;2023-07-31T02:42:00;21.00;68.90
75819;DHT22;64453;51.944;9.796;2023-07-31T02:44:27;20.80;67.30
75819;DHT22;64453;51.944;9.796;2023-07-31T02:46:54;20.80;68.80
75819;DHT22;64453;51.944;9.796;2023-07-31T02:49:21;20.10;69.90
75819;DHT22;64453;51.944;9.796;2023-07-31T02:51:49;20.30;71.00
75819;DHT22;64453;51.944;9.796;2023-07-31T02:54:16;20.30;70.70
75819;DHT22;64453;51.944;9.796;2023-07-31T02:56:43;20.10;69.50
75819;DHT22;64453;51.944;9.796;2023-07-31T02:59:10;19.70;72.10
75819;DHT22;64453;51.944;9.796;2023-07-31T03:01:37;19.80;71.80
75819;DHT22;64453;51.944;9.796;2023-07-31T03:04:04;19.40;71.30
75819;DHT22;64453;51.944;9.796;2023-07-31T03:06:32;19.20;74.00
75819;DHT22;64453;51.944;9.796;2023-07-31T03:09:00;19.80;73.30
75819;DHT22;64453;51.944;9.796;2023-07-31T03:11:27;20.30;71.90
75819;DHT22;64453;51.944;9.796;2023-07-31T03:13:54;20.80;71.60
75819;DHT22;64453;51.944;9.796;2023-07-31T03:16:21;20.20;69.10
75819;DHT22;64453;51.944;9.796;2023-07-31T03:18:48;20.20;71.00
75819;DHT22;64453;51.944;9.796;2023-07-31T03:21:15;20.00;71.00
75819;DHT22;64453;51.944;9.796;2023-07-31T03:23:42;20.10;70.40
75819;DHT22;64453;51.944;9.796;2023-07-31T03:26:11;20.50;70.60
75819;DHT22;64453;51.944;9.796;2023-07-31T03:28:38;20.50;70.00
75819;DHT22;64453;51.944;9.796;2023-07-31T03:31:05;20.40;69.60
75819;DHT22;64453;51.944;9.796;2023-07-31T03:33:33;20.60;70.40
75819;DHT22;64453;51.944;9.796;2023-07-31T03:36:01;20.70;69.60
75819;DHT22;64453;51.944;9.796;2023-07-31T03:38:28;21.00;69.20
75819;DHT22;64453;51.944;9.796;2023-07-31T03:40:55;21.00;69.00
75819;DHT22;64453;51.944;9.796;2023-07-31T03:43:25;21.10;68.30
75819;DHT22;64453;51.944;9.796;2023-07-31T03:45:52;20.90;68.70
75819;DHT22;64453;51.944;9.796;2023-07-31T03:48:20;20.80;69.30
75819;DHT22;64453;51.944;9.796;2023-07-31T03:50:47;21.00;68.90
75819;DHT22;64453;51.944;9.796;2023-07-31T03:53:14;21.10;69.20
75819;DHT22;64453;51.944;9.796;2023-07-31T03:55:42;21.20;69.40
75819;DHT22;64453;51.944;9.796;2023-07-31T03:58:08;21.00;69.20
75819;DHT22;64453;51.944;9.796;2023-07-31T04:00:41;20.80;68.60
75819;DHT22;64453;51.944;9.796;2023-07-31T04:03:08;21.00;70.10
75819;DHT22;64453;51.944;9.796;2023-07-31T04:05:38;20.90;70.40
75819;DHT22;64453;51.944;9.796;2023-07-31T04:08:05;21.00;70.00
75819;DHT22;64453;51.944;9.796;2023-07-31T04:10:32;21.10;70.10
75819;DHT22;64453;51.944;9.796;2023-07-31T04:13:00;21.10;70.00
75819;DHT22;64453;51.944;9.796;2023-07-31T04:15:27;21.10;69.40
75819;DHT22;64453;51.944;9.796;2023-07-31T04:17:56;21.10;69.90
75819;DHT22;64453;51.944;9.796;2023-07-31T04:20:23;21.10;69.80
75819;DHT22;64453;51.944;9.796;2023-07-31T04:22:50;21.00;70.30
75819;DHT22;64453;51.944;9.796;2023-07-31T04:25:17;21.00;70.20
75819;DHT22;64453;51.944;9.796;2023-07-31T04:27:46;20.90;69.00
75819;DHT22;64453;51.944;9.796;2023-07-31T04:30:13;20.90;69.60
75819;DHT22;64453;51.944;9.796;2023-07-31T04:32:40;20.60;70.10
75819;DHT22;64453;51.944;9.796;2023-07-31T04:35:09;20.60;69.50
75819;DHT22;64453;51.944;9.796;2023-07-31T04:37:36;20.30;71.00
75819;DHT22;64453;51.944;9.796;2023-07-31T04:40:05;20.40;70.60
75819;DHT22;64453;51.944;9.796;2023-07-31T04:42:32;20.30;70.60
75819;DHT22;64453;51.944;9.796;2023-07-31T04:45:00;20.40;71.20
75819;DHT22;64453;51.944;9.796;2023-07-31T04:47:27;20.00;71.20
75819;DHT22;64453;51.944;9.796;2023-07-31T04:49:54;19.90;72.30
75819;DHT22;64453;51.944;9.796;2023-07-31T04:52:22;19.80;73.10
75819;DHT22;64453;51.944;9.796;2023-07-31T04:54:49;20.00;71.90
75819;DHT22;64453;51.944;9.796;2023-07-31T04:57:16;20.30;72.00
75819;DHT22;64453;51.944;9.796;2023-07-31T04:59:43;20.00;71.60
75819;DHT22;64453;51.944;9.796;2023-07-31T05:02:11;20.00;72.10
75819;DHT22;64453;51.944;9.796;2023-07-31T05:04:39;20.40;72.40
75819;DHT22;64453;51.944;9.796;2023-07-31T05:07:06;20.30;71.20
75819;DHT22;64453;51.944;9.796;2023-07-31T05:09:34;20.30;71.00
75819;DHT22;64453;51.944;9.796;2023-07-31T05:12:01;20.50;71.50
75819;DHT22;64453;51.944;9.796;2023-07-31T05:14:28;20.70;71.20
75819;DHT22;64453;51.944;9.796;2023-07-31T05:16:55;19.90;71.60
75819;DHT22;64453;51.944;9.796;2023-07-31T05:19:22;20.10;72.60
75819;DHT22;64453;51.944;9.796;2023-07-31T05:21:50;20.30;70.70
75819;DHT22;64453;51.944;9.796;2023-07-31T05:24:18;20.70;71.30
75819;DHT22;64453;51.944;9.796;2023-07-31T05:26:47;20.60;69.00
75819;DHT22;64453;51.944;9.796;2023-07-31T05:29:14;20.30;71.70
75819;DHT22;64453;51.944;9.796;2023-07-31T05:31:42;20.70;71.00
75819;DHT22;64453;51.944;9.796;2023-07-31T05:34:09;20.50;71.70
75819;DHT22;64453;51.944;9.796;2023-07-31T05:36:35;20.70;69.80
75819;DHT22;64453;51.944;9.796;2023-07-31T05:39:02;20.00;70.10
75819;DHT22;64453;51.944;9.796;2023-07-31T05:41:32;20.30;72.80
75819;DHT22;64453;51.944;9.796;2023-07-31T05:44:01;19.80;72.50
75819;DHT22;64453;51.944;9.796;2023-07-31T05:46:28;19.90;72.30
75819;DHT22;64453;51.944;9.796;2023-07-31T05:48:56;20.00;73.30
75819;DHT22;64453;51.944;9.796;2023-07-31T05:51:25;20.20;73.60
75819;DHT22;64453;51.944;9.796;2023-07-31T05:53:52;20.20;72.50
75819;DHT22;64453;51.944;9.796;2023-07-31T05:56:19;19.80;71.30
75819;DHT22;64453;51.944;9.796;2023-07-31T05:58:46;20.00;72.80
75819;DHT22;64453;51.944;9.796;2023-07-31T06:01:17;19.80;73.20
75819;DHT22;64453;51.944;9.796;2023-07-31T06:03:44;19.80;73.90
75819;DHT22;64453;51.944;9.796;2023-07-31T06:06:11;19.90;72.90
75819;DHT22;64453;51.944;9.796;2023-07-31T06:08:39;19.20;73.70
75819;DHT22;64453;51.944;9.796;2023-07-31T06:11:07;19.20;73.60
75819;DHT22;64453;51.944;9.796;2023-07-31T06:13:34;19.20;75.60
75819;DHT22;64453;51.944;9.796;2023-07-31T06:16:01;19.80;74.50
75819;DHT22;64453;51.944;9.796;2023-07-31T06:18:32;19.70;71.70
75819;DHT22;64453;51.944;9.796;2023-07-31T06:20:59;19.70;72.50
75819;DHT22;64453;51.944;9.796;2023-07-31T06:23:26;20.20;71.70
75819;DHT22;64453;51.944;9.796;2023-07-31T06:25:53;20.20;70.50
75819;DHT22;64453;51.944;9.796;2023-07-31T06:28:20;20.00;70.40
75819;DHT22;64453;51.944;9.796;2023-07-31T06:30:47;20.50;71.20
75819;DHT22;64453;51.944;9.796;2023-07-31T06:33:14;20.70;69.50
75819;DHT22;64453;51.944;9.796;2023-07-31T06:35:42;20.50;68.70
75819;DHT22;64453;51.944;9.796;2023-07-31T06:38:11;20.70;68.90
75819;DHT22;64453;51.944;9.796;2023-07-31T06:40:38;20.70;68.20
75819;DHT22;64453;51.944;9.796;2023-07-31T06:43:05;20.00;68.30
75819;DHT22;64453;51.944;9.796;2023-07-31T06:45:33;19.80;70.40
75819;DHT22;64453;51.944;9.796;2023-07-31T06:48:01;20.10;70.60
75819;DHT22;64453;51.944;9.796;2023-07-31T06:50:29;20.20;69.50
75819;DHT22;64453;51.944;9.796;2023-07-31T06:52:58;20.40;69.20
75819;DHT22;64453;51.944;9.796;2023-07-31T06:55:25;20.60;67.50
75819;DHT22;64453;51.944;9.796;2023-07-31T06:57:54;20.70;67.60
75819;DHT22;64453;51.944;9.796;2023-07-31T07:00:22;20.80;68.50
75819;DHT22;64453;51.944;9.796;2023-07-31T07:02:50;20.90;67.90
75819;DHT22;64453;51.944;9.796;2023-07-31T07:05:17;20.70;67.60
75819;DHT22;64453;51.944;9.796;2023-07-31T07:07:44;20.50;66.90
75819;DHT22;64453;51.944;9.796;2023-07-31T07:10:13;20.70;68.60
75819;DHT22;64453;51.944;9.796;2023-07-31T07:12:40;20.50;67.90
75819;DHT22;64453;51.944;9.796;2023-07-31T07:15:08;20.10;69.50
75819;DHT22;64453;51.944;9.796;2023-07-31T07:17:36;20.10;69.40
75819;DHT22;64453;51.944;9.796;2023-07-31T07:20:03;20.40;68.90
75819;DHT22;64453;51.944;9.796;2023-07-31T07:22:31;20.10;67.60
75819;DHT22;64453;51.944;9.796;2023-07-31T07:24:58;20.20;68.70
75819;DHT22;64453;51.944;9.796;2023-07-31T07:27:27;20.00;68.40
75819;DHT22;64453;51.944;9.796;2023-07-31T07:29:54;20.10;69.60
75819;DHT22;64453;51.944;9.796;2023-07-31T07:32:21;20.90;69.80
75819;DHT22;64453;51.944;9.796;2023-07-31T07:34:48;21.00;68.10
75819;DHT22;64453;51.944;9.796;2023-07-31T07:37:15;20.70;67.80
75819;DHT22;64453;51.944;9.796;2023-07-31T07:39:43;21.10;67.90
75819;DHT22;64453;51.944;9.796;2023-07-31T07:42:10;20.70;68.00
75819;DHT22;64453;51.944;9.796;2023-07-31T07:44:38;21.10;68.10
75819;DHT22;64453;51.944;9.796;2023-07-31T07:47:05;21.30;68.00
75819;DHT22;64453;51.944;9.796;2023-07-31T07:49:33;21.20;67.90
75819;DHT22;64453;51.944;9.796;2023-07-31T07:52:00;21.00;67.90
75819;DHT22;64453;51.944;9.796;2023-07-31T07:54:28;21.00;68.40
75819;DHT22;64453;51.944;9.796;2023-07-31T07:56:54;21.00;67.60
75819;DHT22;64453;51.944;9.796;2023-07-31T07:59:22;21.10;68.50
75819;DHT22;64453;51.944;9.796;2023-07-31T08:01:50;21.30;68.90
75819;DHT22;64453;51.944;9.796;2023-07-31T08:04:17;21.30;67.90
75819;DHT22;64453;51.944;9.796;2023-07-31T08:06:44;21.20;68.40
75819;DHT22;64453;51.944;9.796;2023-07-31T08:09:11;20.50;69.10
75819;DHT22;64453;51.944;9.796;2023-07-31T08:11:38;20.40;70.50
75819;DHT22;64453;51.944;9.796;2023-07-31T08:14:05;20.70;70.30
75819;DHT22;64453;51.944;9.796;2023-07-31T08:16:32;20.50;70.30
75819;DHT22;64453;51.944;9.796;2023-07-31T08:19:01;19.80;71.10
75819;DHT22;64453;51.944;9.796;2023-07-31T08:21:28;19.80;73.50
75819;DHT22;64453;51.944;9.796;2023-07-31T08:23:55;20.00;73.70
75819;DHT22;64453;51.944;9.796;2023-07-31T08:26:22;19.80;74.30
75819;DHT22;64453;51.944;9.796;2023-07-31T08:28:49;19.90;75.10
75819;DHT22;64453;51.944;9.796;2023-07-31T08:31:16;20.00;73.60
75819;DHT22;64453;51.944;9.796;2023-07-31T08:33:44;20.40;73.30
75819;DHT22;64453;51.944;9.796;2023-07-31T08:36:12;20.70;72.80
75819;DHT22;64453;51.944;9.796;2023-07-31T08:38:40;21.00;74.50
75819;DHT22;64453;51.944;9.796;2023-07-31T08:41:07;21.10;72.10
75819;DHT22;64453;51.944;9.796;2023-07-31T08:43:34;21.20;73.70
75819;DHT22;64453;51.944;9.796;2023-07-31T08:46:02;21.30;73.50
75819;DHT22;64453;51.944;9.796;2023-07-31T08:48:31;21.40;73.00
75819;DHT22;64453;51.944;9.796;2023-07-31T08:50:59;21.40;72.50
75819;DHT22;64453;51.944;9.796;2023-07-31T08:53:27;21.40;71.80
75819;DHT22;64453;51.944;9.796;2023-07-31T08:55:54;21.50;73.20
75819;DHT22;64453;51.944;9.796;2023-07-31T08:58:24;21.50;72.80
75819;DHT22;64453;51.944;9.796;2023-07-31T09:00:52;21.30;72.60
75819;DHT22;64453;51.944;9.796;2023-07-31T09:03:21;21.10;71.30
75819;DHT22;64453;51.944;9.796;2023-07-31T09:05:50;21.30;72.00
75819;DHT22;64453;51.944;9.796;2023-07-31T09:08:20;21.30;71.10
75819;DHT22;64453;51.944;9.796;2023-07-31T09:10:49;21.10;71.10
75819;DHT22;64453;51.944;9.796;2023-07-31T09:13:17;21.20;71.40
75819;DHT22;64453;51.944;9.796;2023-07-31T09:15:45;21.40;72.10
75819;DHT22;64453;51.944;9.796;2023-07-31T09:18:12;21.50;72.60
75819;DHT22;64453;51.944;9.796;2023-07-31T09:20:42;21.50;71.90
75819;DHT22;64453;51.944;9.796;2023-07-31T09:23:11;21.40;71.80
75819;DHT22;64453;51.944;9.796;2023-07-31T09:25:42;21.40;71.60
75819;DHT22;64453;51.944;9.796;2023-07-31T09:28:12;21.20;72.10
75819;DHT22;64453;51.944;9.796;2023-07-31T09:30:47;21.30;73.20
75819;DHT22;64453;51.944;9.796;2023-07-31T09:33:15;21.40;72.80
75819;DHT22;64453;51.944;9.796;2023-07-31T09:35:43;21.60;73.80
75819;DHT22;64453;51.944;9.796;2023-07-31T09:38:12;21.60;72.60
75819;DHT22;64453;51.944;9.796;2023-07-31T09:40:41;21.80;72.80
75819;DHT22;64453;51.944;9.796;2023-07-31T09:43:10;22.00;73.30
75819;DHT22;64453;51.944;9.796;2023-07-31T09:45:41;21.30;71.40
75819;DHT22;64453;51.944;9.796;2023-07-31T09:48:09;21.70;72.50
75819;DHT22;64453;51.944;9.796;2023-07-31T09:50:38;21.60;71.90
75819;DHT22;64453;51.944;9.796;2023-07-31T09:53:08;21.60;71.80
75819;DHT22;64453;51.944;9.796;2023-07-31T09:55:36;21.90;72.10
75819;DHT22;64453;51.944;9.796;2023-07-31T09:58:06;22.00;71.10
75819;DHT22;64453;51.944;9.796;2023-07-31T10:00:35;22.10;71.90
75819;DHT22;64453;51.944;9.796;2023-07-31T10:03:06;21.80;70.10
75819;DHT22;64453;51.944;9.796;2023-07-31T10:05:35;21.50;71.40
75819;DHT22;64453;51.944;9.796;2023-07-31T10:08:03;21.30;71.60
75819;DHT22;64453;51.944;9.796;2023-07-31T10:10:31;21.30;71.90
75819;DHT22;64453;51.944;9.796;2023-07-31T10:12:59;21.70;71.20
75819;DHT22;64453;51.944;9.796;2023-07-31T10:15:28;21.50;70.80
75819;DHT22;64453;51.944;9.796;2023-07-31T10:17:58;21.20;73.60
75819;DHT22;64453;51.944;9.796;2023-07-31T10:20:26;21.60;73.20
75819;DHT22;64453;51.944;9.796;2023-07-31T10:22:55;21.80;75.70
75819;DHT22;64453;51.944;9.796;2023-07-31T10:25:23;21.60;71.40
75819;DHT22;64453;51.944;9.796;2023-07-31T10:27:52;21.70;73.40
75819;DHT22;64453;51.944;9.796;2023-07-31T10:30:23;21.80;72.10
75819;DHT22;64453;51.944;9.796;2023-07-31T10:32:53;21.30;71.50
75819;DHT22;64453;51.944;9.796;2023-07-31T10:35:22;20.90;70.70
75819;DHT22;64453;51.944;9.796;2023-07-31T10:37:49;21.10;71.20
75819;DHT22;64453;51.944;9.796;2023-07-31T10:40:19;21.50;70.70
75819;DHT22;64453;51.944;9.796;2023-07-31T10:42:51;21.60;68.50
75819;DHT22;64453;51.944;9.796;2023-07-31T10:45:35;21.40;69.70
75819;DHT22;64453;51.944;9.796;2023-07-31T10:48:04;21.70;69.20
75819;DHT22;64453;51.944;9.796;2023-07-31T10:50:37;21.80;69.00
75819;DHT22;64453;51.944;9.796;2023-07-31T10:53:05;21.50;68.90
75819;DHT22;64453;51.944;9.796;2023-07-31T10:55:33;21.90;69.70
75819;DHT22;64453;51.944;9.796;2023-07-31T10:58:07;21.90;69.60
75819;DHT22;64453;51.944;9.796;2023-07-31T11:00:37;22.10;70.00
75819;DHT22;64453;51.944;9.796;2023-07-31T11:03:06;22.50;69.30
75819;DHT22;64453;51.944;9.796;2023-07-31T11:05:52;22.70;69.00
75819;DHT22;64453;51.944;9.796;2023-07-31T11:08:22;22.70;68.00
75819;DHT22;64453;51.944;9.796;2023-07-31T11:10:51;22.60;66.40
75819;DHT22;64453;51.944;9.796;2023-07-31T11:13:32;22.40;67.50
75819;DHT22;64453;51.944;9.796;2023-07-31T11:16:01;22.50;67.10
75819;DHT22;64453;51.944;9.796;2023-07-31T11:18:28;22.30;67.60
75819;DHT22;64453;51.944;9.796;2023-07-31T11:20:56;22.40;68.30
75819;DHT22;64453;51.944;9.796;2023-07-31T11:23:24;22.60;67.30
75819;DHT22;64453;51.944;9.796;2023-07-31T11:25:51;22.60;68.00
75819;DHT22;64453;51.944;9.796;2023-07-31T11:28:20;22.80;68.10
75819;DHT22;64453;51.944;9.796;2023-07-31T11:30:47;22.70;68.30
75819;DHT22;64453;51.944;9.796;2023-07-31T11:33:14;22.40;69.80
75819;DHT22;64453;51.944;9.796;2023-07-31T11:35:43;22.50;70.20
75819;DHT22;64453;51.944;9.796;2023-07-31T11:38:21;22.20;69.20
75819;DHT22;64453;51.944;9.796;2023-07-31T11:40:49;22.20;72.30
75819;DHT22;64453;51.944;9.796;2023-07-31T11:43:18;21.90;73.30
75819;DHT22;64453;51.944;9.796;2023-07-31T11:45:47;22.30;74.00
75819;DHT22;64453;51.944;9.796;2023-07-31T11:48:19;22.40;72.60
75819;DHT22;64453;51.944;9.796;2023-07-31T11:50:48;22.60;71.40
75819;DHT22;64453;51.944;9.796;2023-07-31T11:53:20;22.30;71.30
75819;DHT22;64453;51.944;9.796;2023-07-31T11:55:50;22.50;72.20
75819;DHT22;64453;51.944;9.796;2023-07-31T11:58:18;22.70;72.40
75819;DHT22;64453;51.944;9.796;2023-07-31T12:00:46;22.80;71.10
75819;DHT22;64453;51.944;9.796;2023-07-31T12:03:13;22.40;69.80
75819;DHT22;64453;51.944;9.796;2023-07-31T12:05:40;22.10;70.80
75819;DHT22;64453;51.944;9.796;2023-07-31T12:08:11;21.90;71.20
75819;DHT22;64453;51.944;9.796;2023-07-31T12:10:40;21.90;72.00
75819;DHT22;64453;51.944;9.796;2023-07-31T12:13:09;22.10;72.50
75819;DHT22;64453;51.944;9.796;2023-07-31T12:15:40;22.30;70.60
75819;DHT22;64453;51.944;9.796;2023-07-31T12:18:09;22.40;70.70
75819;DHT22;64453;51.944;9.796;2023-07-31T12:20:41;22.10;71.10
75819;DHT22;64453;51.944;9.796;2023-07-31T12:23:17;21.80;72.50
75819;DHT22;64453;51.944;9.796;2023-07-31T12:26:01;22.20;72.40
75819;DHT22;64453;51.944;9.796;2023-07-31T12:28:29;21.80;71.40
75819;DHT22;64453;51.944;9.796;2023-07-31T12:30:57;21.70;74.50
75819;DHT22;64453;51.944;9.796;2023-07-31T12:33:31;21.80;74.60
75819;DHT22;64453;51.944;9.796;2023-07-31T12:36:00;22.00;75.30
75819;DHT22;64453;51.944;9.796;2023-07-31T12:38:28;21.90;75.50
75819;DHT22;64453;51.944;9.796;2023-07-31T12:40:55;21.70;75.40
75819;DHT22;64453;51.944;9.796;2023-07-31T12:43:23;21.30;74.40
75819;DHT22;64453;51.944;9.796;2023-07-31T12:45:51;21.30;75.80
75819;DHT22;64453;51.944;9.796;2023-07-31T12:48:18;21.30;76.00
75819;DHT22;64453;51.944;9.796;2023-07-31T12:50:44;20.80;75.50
75819;DHT22;64453;51.944;9.796;2023-07-31T12:53:12;21.40;76.90
75819;DHT22;64453;51.944;9.796;2023-07-31T12:55:39;21.80;74.60
75819;DHT22;64453;51.944;9.796;2023-07-31T12:58:09;21.80;73.80
75819;DHT22;64453;51.944;9.796;2023-07-31T13:00:37;21.50;73.30
75819;DHT22;64453;51.944;9.796;2023-07-31T13:03:04;21.80;75.20
75819;DHT22;64453;51.944;9.796;2023-07-31T13:05:31;22.10;74.40
75819;DHT22;64453;51.944;9.796;2023-07-31T13:07:59;21.60;74.50
75819;DHT22;64453;51.944;9.796;2023-07-31T13:10:27;21.50;74.30
75819;DHT22;64453;51.944;9.796;2023-07-31T13:12:55;21.80;73.70
75819;DHT22;64453;51.944;9.796;2023-07-31T13:15:22;21.40;75.00
75819;DHT22;64453;51.944;9.796;2023-07-31T13:17:51;21.80;76.50
75819;DHT22;64453;51.944;9.796;2023-07-31T13:20:18;21.80;74.60
75819;DHT22;64453;51.944;9.796;2023-07-31T13:22:45;21.60;74.40
75819;DHT22;64453;51.944;9.796;2023-07-31T13:25:12;21.50;74.10
75819;DHT22;64453;51.944;9.796;2023-07-31T13:27:39;21.60;75.60
75819;DHT22;64453;51.944;9.796;2023-07-31T13:30:07;21.60;75.80
75819;DHT22;64453;51.944;9.796;2023-07-31T13:32:35;21.80;75.70
75819;DHT22;64453;51.944;9.796;2023-07-31T13:35:07;21.90;77.30
75819;DHT22;64453;51.944;9.796;2023-07-31T13:37:36;22.20;77.60
75819;DHT22;64453;51.944;9.796;2023-07-31T13:40:04;22.30;75.30
75819;DHT22;64453;51.944;9.796;2023-07-31T13:42:32;22.20;75.20
75819;DHT22;64453;51.944;9.796;2023-07-31T13:44:59;21.90;75.90
75819;DHT22;64453;51.944;9.796;2023-07-31T13:47:26;22.10;75.40
75819;DHT22;64453;51.944;9.796;2023-07-31T13:49:53;21.90;74.80
75819;DHT22;64453;51.944;9.796;2023-07-31T13:52:21;21.80;75.70
75819;DHT22;64453;51.944;9.796;2023-07-31T13:54:48;21.30;78.50
75819;DHT22;64453;51.944;9.796;2023-07-31T13:57:15;21.20;77.30
75819;DHT22;64453;51.944;9.796;2023-07-31T13:59:42;21.80;76.70
75819;DHT22;64453;51.944;9.796;2023-07-31T14:02:09;21.70;75.70
75819;DHT22;64453;51.944;9.796;2023-07-31T14:04:36;21.90;74.20
75819;DHT22;64453;51.944;9.796;2023-07-31T14:07:05;21.90;75.80
75819;DHT22;64453;51.944;9.796;2023-07-31T14:09:34;21.40;76.50
75819;DHT22;64453;51.944;9.796;2023-07-31T14:12:02;21.70;77.10
75819;DHT22;64453;51.944;9.796;2023-07-31T14:14:29;21.60;75.20
75819;DHT22;64453;51.944;9.796;2023-07-31T14:16:56;21.50;76.50
75819;DHT22;64453;51.944;9.796;2023-07-31T14:19:23;21.00;80.50
75819;DHT22;64453;51.944;9.796;2023-07-31T14:21:50;21.30;81.10
75819;DHT22;64453;51.944;9.796;2023-07-31T14:24:17;20.90;80.00
75819;DHT22;64453;51.944;9.796;2023-07-31T14:26:45;20.90;80.60
75819;DHT22;64453;51.944;9.796;2023-07-31T14:29:12;20.70;84.00
75819;DHT22;64453;51.944;9.796;2023-07-31T14:31:39;21.10;81.30
75819;DHT22;64453;51.944;9.796;2023-07-31T14:34:06;21.30;80.50
75819;DHT22;64453;51.944;9.796;2023-07-31T14:36:33;21.10;79.50
75819;DHT22;64453;51.944;9.796;2023-07-31T14:39:00;21.20;81.80
75819;DHT22;64453;51.944;9.796;2023-07-31T14:41:27;21.70;79.90
75819;DHT22;64453;51.944;9.796;2023-07-31T14:43:56;22.10;79.60
75819;DHT22;64453;51.944;9.796;2023-07-31T14:46:23;22.10;77.40
75819;DHT22;64453;51.944;9.796;2023-07-31T14:48:50;22.20;77.80
75819;DHT22;64453;51.944;9.796;2023-07-31T14:51:17;22.00;78.80
75819;DHT22;64453;51.944;9.796;2023-07-31T14:53:44;22.20;76.90
75819;DHT22;64453;51.944;9.796;2023-07-31T14:56:12;21.90;77.40
75819;DHT22;64453;51.944;9.796;2023-07-31T14:58:39;22.30;78.60
75819;DHT22;64453;51.944;9.796;2023-07-31T15:01:08;22.50;75.50
75819;DHT22;64453;51.944;9.796;2023-07-31T15:03:34;22.30;75.30
75819;DHT22;64453;51.944;9.796;2023-07-31T15:06:01;22.20;75.70
75819;DHT22;64453;51.944;9.796;2023-07-31T15:08:30;21.90;75.80
75819;DHT22;64453;51.944;9.796;2023-07-31T15:10:57;21.70;77.10
75819;DHT22;64453;51.944;9.796;2023-07-31T15:13:24;21.50;76.40
75819;DHT22;64453;51.944;9.796;2023-07-31T15:15:51;22.00;76.10
75819;DHT22;64453;51.944;9.796;2023-07-31T15:18:20;22.00;77.00
75819;DHT22;64453;51.944;9.796;2023-07-31T15:20:47;21.60;74.70
75819;DHT22;64453;51.944;9.796;2023-07-31T15:23:14;21.50;77.50
75819;DHT22;64453;51.944;9.796;2023-07-31T15:25:41;21.90;76.40
75819;DHT22;64453;51.944;9.796;2023-07-31T15:28:08;22.30;75.40
75819;DHT22;64453;51.944;9.796;2023-07-31T15:30:35;21.90;73.80
75819;DHT22;64453;51.944;9.796;2023-07-31T15:33:04;22.00;73.50
75819;DHT22;64453;51.944;9.796;2023-07-31T15:35:32;21.60;75.10